Time;durP1;ratioP1;P1;durP2;ratioP2;P2;SDS_P1;SDS_P2;PMS_P1;PMS_P2;Temp;Humidity;BMP_temperature;BMP_pressure;BME280_temperature;BME280_humidity;BME280_pressure;Samples;Min_cycle;Max_cycle;Signal;HPM_P1;HPM_P2
2024/02/07 00:00:05;;;;;;;2.50;2.30;;;11.60;56.40;;;;;;5046410;28;20419;-66
2024/02/07 00:02:32;;;;;;;3.73;2.70;;;11.60;56.50;;;;;;5038341;28;20189;-66
2024/02/07 00:04:58;;;;;;;3.73;1.87;;;11.50;56.50;;;;;;5047194;28;20434;-67
2024/02/07 00:07:23;;;;;;;3.50;2.63;;;11.40;56.80;;;;;;5039715;28;20472;-71
2024/02/07 00:09:49;;;;;;;3.53;2.40;;;11.40;56.90;;;;;;5039529;28;20295;-67
2024/02/07 00:12:14;;;;;;;3.10;2.40;;;11.30;57.00;;;;;;5037190;28;20668;-65
2024/02/07 00:14:40;;;;;;;2.43;2.23;;;11.40;57.10;;;;;;5044274;28;20782;-67
2024/02/07 00:17:05;;;;;;;4.00;2.20;;;11.40;56.90;;;;;;5042334;28;20216;-67
2024/02/07 00:19:31;;;;;;;3.30;1.90;;;11.30;57.20;;;;;;5041367;28;20184;-66
2024/02/07 00:21:57;;;;;;;2.70;2.00;;;11.40;57.40;;;;;;5041888;28;20196;-64
2024/02/07 00:24:22;;;;;;;2.87;2.10;;;11.40;57.10;;;;;;5039503;28;20201;-68
2024/02/07 00:26:48;;;;;;;2.57;2.20;;;11.50;56.80;;;;;;5046024;28;20285;-70
2024/02/07 00:29:14;;;;;;;4.63;2.33;;;11.50;56.70;;;;;;5041329;28;20644;-67
2024/02/07 00:31:39;;;;;;;3.70;2.27;;;11.60;56.70;;;;;;5041704;28;20196;-61
2024/02/07 00:34:05;;;;;;;3.00;1.97;;;11.60;56.80;;;;;;5041913;28;20190;-63
2024/02/07 00:36:30;;;;;;;3.03;1.83;;;11.70;56.50;;;;;;5041198;28;20200;-69
2024/02/07 00:38:56;;;;;;;2.63;2.00;;;11.60;56.50;;;;;;5041151;28;20562;-70
2024/02/07 00:41:22;;;;;;;3.73;1.97;;;11.60;56.50;;;;;;5043928;28;20270;-73
2024/02/07 00:43:49;;;;;;;3.67;2.30;;;11.80;56.40;;;;;;5042097;28;20615;-69
2024/02/07 00:46:14;;;;;;;2.10;1.77;;;12.10;55.80;;;;;;5040272;28;20464;-70
2024/02/07 00:48:40;;;;;;;4.70;2.97;;;12.00;55.50;;;;;;5039962;28;20479;-70
2024/02/07 00:51:07;;;;;;;4.53;2.00;;;11.90;56.00;;;;;;5041708;28;20408;-65
2024/02/07 00:53:32;;;;;;;2.63;1.80;;;11.80;55.80;;;;;;5034340;28;20188;-68
2024/02/07 00:55:58;;;;;;;4.37;1.90;;;11.90;55.70;;;;;;5036093;28;20800;-66
2024/02/07 00:58:24;;;;;;;2.50;1.83;;;12.00;55.60;;;;;;5040899;28;20184;-72
2024/02/07 01:00:50;;;;;;;3.67;2.20;;;12.00;55.50;;;;;;5038852;28;21144;-65
2024/02/07 01:03:15;;;;;;;2.10;1.90;;;12.20;55.30;;;;;;5040466;28;20191;-69
2024/02/07 01:05:41;;;;;;;3.20;2.33;;;12.20;55.00;;;;;;5041379;28;20208;-76
2024/02/07 01:08:06;;;;;;;2.90;2.03;;;12.30;54.90;;;;;;5041461;28;20225;-69
2024/02/07 01:10:32;;;;;;;2.20;1.90;;;12.30;54.80;;;;;;5040472;28;20187;-67
2024/02/07 01:12:58;;;;;;;6.10;2.63;;;12.30;54.70;;;;;;5039618;28;20234;-71
2024/02/07 01:15:23;;;;;;;3.43;2.30;;;12.30;54.80;;;;;;5042805;28;20181;-69
2024/02/07 01:17:49;;;;;;;3.00;2.03;;;12.30;55.00;;;;;;5037174;28;20718;-68
2024/02/07 01:20:14;;;;;;;2.60;2.10;;;12.20;55.60;;;;;;5042830;28;20184;-68
2024/02/07 01:22:40;;;;;;;5.03;2.00;;;12.10;55.20;;;;;;5049253;28;20898;-65
2024/02/07 01:25:06;;;;;;;5.00;2.40;;;11.90;55.60;;;;;;5048103;28;20181;-64
2024/02/07 01:27:32;;;;;;;2.30;2.10;;;11.90;55.90;;;;;;5043525;28;20286;-65
2024/02/07 01:29:58;;;;;;;4.00;2.00;;;12.00;56.00;;;;;;5046276;28;20269;-65
2024/02/07 01:32:23;;;;;;;2.20;1.80;;;12.10;55.90;;;;;;5034215;28;20187;-70
2024/02/07 01:34:49;;;;;;;2.50;2.07;;;12.20;55.80;;;;;;5040529;28;20419;-69
2024/02/07 01:37:17;;;;;;;3.77;1.90;;;12.30;55.60;;;;;;5033446;28;20216;-60
2024/02/07 01:39:43;;;;;;;4.20;2.30;;;12.30;55.40;;;;;;5031018;28;20638;-69
2024/02/07 01:42:08;;;;;;;2.47;1.97;;;12.40;55.50;;;;;;5036824;28;20411;-63
2024/02/07 01:44:34;;;;;;;4.87;2.50;;;12.50;55.20;;;;;;5036952;28;20184;-64
2024/02/07 01:47:13;;;;;;;4.63;1.97;;;12.40;55.20;;;;;;5039781;28;20213;-65
2024/02/07 01:50:05;;;;;;;4.60;2.13;;;12.30;55.50;;;;;;5033216;28;20659;-62
2024/02/07 01:52:35;;;;;;;1.97;1.77;;;12.30;55.50;;;;;;5037080;28;20442;-73
2024/02/07 01:55:02;;;;;;;2.33;2.13;;;12.20;55.50;;;;;;5041347;28;20443;-72
2024/02/07 01:57:28;;;;;;;6.43;2.43;;;12.20;55.70;;;;;;5035333;28;20833;-67
2024/02/07 01:59:54;;;;;;;2.33;2.13;;;12.00;55.90;;;;;;5038346;28;20980;-63
2024/02/07 02:02:23;;;;;;;5.80;2.43;;;11.90;56.50;;;;;;5041490;28;20542;-65
2024/02/07 02:04:48;;;;;;;2.60;2.10;;;12.00;56.60;;;;;;5037597;28;20462;-62
2024/02/07 02:07:14;;;;;;;5.50;2.20;;;11.90;56.80;;;;;;5037850;28;20478;-65
2024/02/07 02:09:40;;;;;;;3.77;2.07;;;11.80;56.80;;;;;;5038434;28;20569;-70
2024/02/07 02:12:07;;;;;;;4.43;2.17;;;11.80;57.00;;;;;;5038757;28;20196;-65
2024/02/07 02:14:33;;;;;;;3.47;2.50;;;11.90;56.80;;;;;;5040586;28;20193;-64
2024/02/07 02:17:02;;;;;;;3.17;2.57;;;11.80;56.90;;;;;;5038605;28;20488;-68
2024/02/07 02:19:27;;;;;;;4.30;2.20;;;11.70;57.30;;;;;;5039868;28;20189;-68
2024/02/07 02:22:11;;;;;;;3.40;2.00;;;11.90;57.10;;;;;;5039529;28;20949;-70
2024/02/07 02:24:46;;;;;;;4.67;2.07;;;12.00;56.90;;;;;;5040968;28;20195;-64
2024/02/07 02:27:37;;;;;;;2.20;2.00;;;11.80;57.00;;;;;;5037916;28;20470;-70
2024/02/07 02:30:12;;;;;;;3.03;2.10;;;11.80;57.20;;;;;;5037737;28;20481;-64
2024/02/07 02:32:42;;;;;;;3.87;2.03;;;11.90;57.00;;;;;;5032577;28;20483;-69
2024/02/07 02:35:09;;;;;;;2.90;2.20;;;12.00;56.90;;;;;;5036519;28;20550;-67
2024/02/07 02:37:35;;;;;;;3.00;2.07;;;12.10;56.70;;;;;;5034300;28;20462;-64
2024/02/07 02:40:05;;;;;;;3.37;1.97;;;12.10;56.50;;;;;;5043063;28;20443;-65
2024/02/07 02:42:32;;;;;;;2.93;2.73;;;12.10;56.70;;;;;;5041171;28;20832;-64
2024/02/07 02:44:57;;;;;;;2.30;2.10;;;12.10;56.50;;;;;;5036616;28;20458;-68
2024/02/07 02:47:23;;;;;;;2.63;2.10;;;12.20;56.60;;;;;;5043029;28;20486;-72
2024/02/07 02:49:49;;;;;;;4.00;2.13;;;12.10;56.50;;;;;;5036476;28;20271;-65
2024/02/07 02:52:16;;;;;;;2.43;1.83;;;12.20;56.60;;;;;;5039147;28;20204;-68
2024/02/07 02:54:43;;;;;;;3.27;2.10;;;12.10;56.70;;;;;;5045245;28;20180;-79
2024/02/07 02:57:09;;;;;;;5.17;2.57;;;12.20;56.50;;;;;;5041655;28;20834;-68
2024/02/07 02:59:35;;;;;;;3.50;2.67;;;12.30;56.20;;;;;;5032636;28;20440;-64
2024/02/07 03:02:08;;;;;;;3.50;2.30;;;12.40;56.10;;;;;;5033955;28;20459;-65
2024/02/07 03:04:43;;;;;;;2.57;2.37;;;12.40;56.60;;;;;;5035120;28;20436;-67
2024/02/07 03:09:53;;;;;;;5.77;2.00;;;12.40;56.30;;;;;;5037619;28;21079;-66
2024/02/07 03:12:19;;;;;;;2.10;1.97;;;12.50;56.10;;;;;;5041149;28;20530;-64
2024/02/07 03:14:44;;;;;;;2.80;2.13;;;12.30;56.10;;;;;;5039452;28;20185;-68
2024/02/07 03:17:11;;;;;;;3.90;1.97;;;12.20;56.50;;;;;;5038622;28;20672;-71
2024/02/07 03:19:36;;;;;;;6.13;1.90;;;12.20;56.50;;;;;;5037112;28;20189;-65
2024/02/07 03:22:02;;;;;;;3.30;2.27;;;12.30;56.50;;;;;;5038341;28;20451;-71
2024/02/07 03:24:28;;;;;;;5.30;2.40;;;12.30;56.50;;;;;;5044355;28;20192;-63
2024/02/07 03:26:54;;;;;;;4.27;2.23;;;12.20;56.60;;;;;;5041540;28;20212;-67
2024/02/07 03:29:19;;;;;;;6.40;2.33;;;12.10;56.80;;;;;;5042782;28;20216;-63
2024/02/07 03:31:45;;;;;;;4.10;2.30;;;12.20;57.00;;;;;;5042009;28;20548;-64
2024/02/07 03:34:11;;;;;;;5.00;2.20;;;12.20;56.90;;;;;;5041905;28;20177;-69
2024/02/07 03:36:37;;;;;;;3.10;2.53;;;12.20;56.80;;;;;;5039376;28;20263;-66
2024/02/07 03:39:07;;;;;;;4.03;2.23;;;12.20;57.20;;;;;;5046864;28;20435;-64
2024/02/07 03:41:32;;;;;;;4.07;2.60;;;12.30;56.90;;;;;;5038553;28;20188;-69
2024/02/07 03:43:58;;;;;;;3.87;1.80;;;12.40;56.70;;;;;;5046138;28;20439;-60
2024/02/07 03:46:24;;;;;;;2.40;2.17;;;12.30;56.80;;;;;;5040691;28;20208;-66
2024/02/07 03:48:49;;;;;;;3.00;2.10;;;12.30;57.10;;;;;;5045178;28;20561;-63
2024/02/07 03:51:15;;;;;;;2.40;2.17;;;12.20;57.50;;;;;;5038424;28;20616;-63
2024/02/07 03:53:45;;;;;;;3.03;1.70;;;12.20;57.40;;;;;;5043819;28;20189;-63
2024/02/07 03:56:11;;;;;;;3.50;2.07;;;12.10;57.60;;;;;;5042487;28;20279;-63
2024/02/07 03:58:38;;;;;;;3.07;2.70;;;12.00;58.20;;;;;;5047469;28;20419;-66
2024/02/07 04:01:04;;;;;;;5.77;2.70;;;11.80;58.60;;;;;;5041370;28;20427;-65
2024/02/07 04:03:30;;;;;;;2.40;2.20;;;11.90;58.90;;;;;;5047258;28;20459;-61
2024/02/07 04:05:56;;;;;;;2.40;2.20;;;12.00;58.70;;;;;;5036992;28;20498;-67
2024/02/07 04:08:22;;;;;;;2.67;1.90;;;12.20;58.40;;;;;;5040460;28;20224;-64
2024/02/07 04:10:51;;;;;;;1.93;1.73;;;12.10;58.60;;;;;;5042911;28;20439;-66
2024/02/07 05:16:03;;;;;;;2.30;1.97;;;11.80;60.00;;;;;;5039320;28;20505;-68
2024/02/07 05:18:29;;;;;;;3.80;2.27;;;11.80;61.10;;;;;;5038727;28;20447;-66
2024/02/07 05:20:55;;;;;;;2.50;2.27;;;11.90;60.00;;;;;;5048750;28;20423;-63
2024/02/07 05:23:20;;;;;;;3.27;2.07;;;11.90;60.20;;;;;;5047078;28;20174;-66
2024/02/07 05:25:47;;;;;;;4.50;2.43;;;11.90;60.00;;;;;;5046999;28;20196;-63
2024/02/07 05:28:15;;;;;;;3.80;2.47;;;11.90;59.90;;;;;;5036504;28;20301;-66
2024/02/07 05:30:41;;;;;;;1.70;1.60;;;12.00;59.80;;;;;;5038994;28;20450;-68
2024/02/07 05:33:07;;;;;;;2.40;2.20;;;11.70;60.10;;;;;;5039461;28;20837;-63
2024/02/07 05:35:33;;;;;;;2.47;1.97;;;11.80;60.40;;;;;;5038653;28;20458;-64
2024/02/07 05:37:59;;;;;;;3.17;2.00;;;11.60;60.60;;;;;;5036539;28;20427;-66
2024/02/07 05:40:24;;;;;;;3.40;2.33;;;11.60;60.90;;;;;;5040509;28;20180;-67
2024/02/07 05:42:50;;;;;;;2.83;2.23;;;11.60;60.80;;;;;;5039844;28;20435;-63
2024/02/07 05:45:15;;;;;;;3.33;2.30;;;11.70;60.40;;;;;;5041858;28;20271;-63
2024/02/07 05:47:43;;;;;;;3.73;2.10;;;11.70;60.50;;;;;;5040130;28;20216;-69
2024/02/07 05:50:09;;;;;;;2.10;1.90;;;11.80;60.30;;;;;;5041377;28;20882;-66
2024/02/07 05:52:39;;;;;;;3.83;2.33;;;11.90;60.30;;;;;;5040450;28;20447;-63
2024/02/07 05:55:06;;;;;;;3.50;2.40;;;11.70;59.90;;;;;;5040318;28;20660;-63
2024/02/07 05:57:33;;;;;;;2.97;1.90;;;11.60;60.40;;;;;;5040464;28;21822;-66
2024/02/07 05:59:58;;;;;;;2.70;2.30;;;11.80;60.60;;;;;;5040121;28;20485;-68
2024/02/07 06:02:24;;;;;;;4.97;2.50;;;12.00;60.00;;;;;;5040393;28;20908;-60
2024/02/07 06:04:52;;;;;;;3.30;2.20;;;11.80;59.90;;;;;;5040606;28;20188;-64
2024/02/07 06:07:17;;;;;;;8.00;3.70;;;11.60;60.60;;;;;;5039871;28;20224;-64
2024/02/07 06:09:45;;;;;;;2.73;2.07;;;11.60;60.80;;;;;;5042996;28;20435;-65
2024/02/07 06:12:15;;;;;;;2.33;2.00;;;11.70;60.90;;;;;;5039182;28;20192;-67
2024/02/07 06:14:41;;;;;;;2.93;2.03;;;11.90;60.10;;;;;;5038866;28;20516;-73
2024/02/07 06:17:07;;;;;;;3.70;2.23;;;12.00;59.80;;;;;;5039996;28;20981;-63
2024/02/07 06:19:32;;;;;;;4.37;2.50;;;11.90;59.80;;;;;;5044610;28;20422;-68
2024/02/07 06:21:58;;;;;;;3.10;2.27;;;11.90;59.80;;;;;;5044846;28;20292;-63
2024/02/07 06:24:24;;;;;;;2.23;2.03;;;11.90;59.80;;;;;;5048397;28;20176;-65
2024/02/07 06:26:49;;;;;;;4.10;1.90;;;11.70;60.00;;;;;;5039089;28;20232;-63
2024/02/07 06:29:15;;;;;;;2.90;2.27;;;11.80;60.30;;;;;;5042085;28;20580;-67
2024/02/07 06:31:40;;;;;;;2.80;2.17;;;11.90;60.10;;;;;;5038654;28;20612;-69
2024/02/07 06:34:06;;;;;;;3.30;1.90;;;11.90;60.20;;;;;;5039155;28;20268;-61
2024/02/07 06:36:32;;;;;;;3.80;2.67;;;12.10;59.90;;;;;;5039274;28;20200;-64
2024/02/07 06:38:58;;;;;;;2.40;2.20;;;12.10;60.00;;;;;;5039523;28;22341;-65
2024/02/07 06:41:24;;;;;;;2.43;2.20;;;12.10;59.70;;;;;;5038987;28;20519;-70
2024/02/07 06:43:49;;;;;;;3.90;2.83;;;12.10;59.80;;;;;;5036727;28;20268;-64
2024/02/07 06:46:15;;;;;;;2.37;2.17;;;11.90;60.00;;;;;;5039051;28;20571;-67
2024/02/07 06:48:40;;;;;;;2.60;2.30;;;11.70;60.50;;;;;;5037857;28;20239;-68
2024/02/07 06:51:06;;;;;;;3.43;2.10;;;11.60;61.10;;;;;;5043047;28;20203;-61
2024/02/07 06:53:31;;;;;;;3.67;2.13;;;11.80;61.10;;;;;;5043216;28;20227;-63
2024/02/07 06:55:57;;;;;;;2.47;2.10;;;12.10;60.50;;;;;;5049369;28;20220;-68
2024/02/07 06:58:23;;;;;;;3.13;2.43;;;11.80;60.10;;;;;;5044103;28;20181;-75
2024/02/07 07:00:49;;;;;;;3.13;2.37;;;11.80;60.80;;;;;;5047704;28;20437;-64
2024/02/07 07:03:14;;;;;;;4.17;2.47;;;12.00;60.40;;;;;;5044068;28;20219;-61
2024/02/07 07:05:40;;;;;;;4.07;3.13;;;12.10;60.20;;;;;;5042866;28;20188;-61
2024/02/07 07:08:05;;;;;;;4.17;2.43;;;12.10;59.70;;;;;;5040294;28;20224;-67
2024/02/07 07:10:31;;;;;;;4.70;2.50;;;12.00;59.60;;;;;;5039258;28;20261;-67
2024/02/07 07:12:57;;;;;;;5.83;2.50;;;12.00;59.70;;;;;;5040041;28;20192;-64
2024/02/07 07:15:22;;;;;;;4.93;2.50;;;12.20;59.70;;;;;;5033553;28;20201;-67
2024/02/07 07:17:48;;;;;;;3.30;2.53;;;12.20;59.40;;;;;;5037296;28;20255;-64
2024/02/07 07:20:13;;;;;;;3.03;2.10;;;12.10;59.40;;;;;;5043691;28;20739;-68
2024/02/07 07:22:39;;;;;;;3.10;2.60;;;12.00;59.40;;;;;;5041251;28;20276;-64
2024/02/07 07:25:05;;;;;;;4.37;2.20;;;12.20;59.30;;;;;;5040132;28;20533;-62
2024/02/07 07:27:31;;;;;;;3.93;2.40;;;12.30;59.20;;;;;;5041233;28;20220;-73
2024/02/07 07:29:57;;;;;;;4.00;2.60;;;12.40;58.80;;;;;;5037629;28;20451;-68
2024/02/07 07:32:22;;;;;;;2.80;2.33;;;12.20;58.60;;;;;;5037022;28;20895;-64
2024/02/07 07:34:48;;;;;;;3.30;2.50;;;12.00;59.20;;;;;;5040655;28;20176;-64
2024/02/07 07:37:13;;;;;;;2.57;2.30;;;11.90;59.30;;;;;;5035888;28;20293;-68
2024/02/07 07:39:43;;;;;;;4.27;2.70;;;11.90;59.50;;;;;;5047463;28;20180;-62
2024/02/07 07:42:10;;;;;;;2.80;2.43;;;12.10;59.20;;;;;;5043149;28;20188;-65
2024/02/07 07:44:38;;;;;;;7.80;3.17;;;12.40;59.00;;;;;;5046096;28;20484;-65
2024/02/07 07:47:04;;;;;;;4.43;2.80;;;12.40;58.70;;;;;;5050261;28;20449;-69
2024/02/07 07:49:29;;;;;;;2.63;2.30;;;12.40;58.70;;;;;;5044641;28;20440;-65
2024/02/07 07:51:55;;;;;;;3.30;2.70;;;12.10;58.70;;;;;;5042031;28;20188;-62
2024/02/07 07:54:20;;;;;;;3.60;2.80;;;12.10;58.80;;;;;;5051592;28;20180;-64
2024/02/07 07:56:46;;;;;;;5.70;2.60;;;12.20;59.00;;;;;;5044314;28;20266;-66
2024/02/07 07:59:13;;;;;;;4.43;2.70;;;12.20;58.70;;;;;;5044684;28;20185;-66
2024/02/07 08:01:38;;;;;;;4.23;2.90;;;12.20;58.60;;;;;;5037921;28;20197;-64
2024/02/07 08:04:04;;;;;;;3.93;2.50;;;12.40;58.80;;;;;;5047249;28;20442;-69
2024/02/07 08:06:29;;;;;;;3.63;2.40;;;12.60;58.30;;;;;;5030595;28;20255;-65
2024/02/07 08:08:55;;;;;;;5.97;2.87;;;12.20;58.10;;;;;;5050076;28;20212;-63
2024/02/07 08:11:20;;;;;;;3.07;2.77;;;12.20;58.80;;;;;;5051371;28;20181;-71
2024/02/07 08:13:46;;;;;;;4.87;2.20;;;12.20;58.70;;;;;;5039564;28;20188;-69
2024/02/07 08:16:12;;;;;;;3.73;2.40;;;12.40;58.60;;;;;;5045004;28;20295;-66
2024/02/07 08:18:37;;;;;;;5.23;2.57;;;12.50;58.20;;;;;;5039193;28;20191;-65
2024/02/07 08:21:04;;;;;;;4.00;2.13;;;12.60;58.10;;;;;;5037861;28;20676;-65
2024/02/07 08:23:30;;;;;;;5.33;2.70;;;12.40;58.30;;;;;;5050213;28;20191;-66
2024/02/07 08:25:55;;;;;;;2.70;2.50;;;12.30;58.60;;;;;;5044556;28;20547;-64
2024/02/07 08:28:21;;;;;;;6.33;3.53;;;12.40;58.60;;;;;;5038545;28;20205;-65
2024/02/07 08:30:47;;;;;;;5.13;2.47;;;12.50;58.70;;;;;;5046357;28;20176;-70
2024/02/07 08:33:12;;;;;;;6.03;2.80;;;12.50;58.40;;;;;;5039661;28;20218;-68
2024/02/07 08:35:38;;;;;;;4.93;2.53;;;12.40;58.30;;;;;;5048684;28;20181;-67
2024/02/07 08:38:04;;;;;;;3.57;2.80;;;12.40;58.70;;;;;;5040048;28;20196;-67
2024/02/07 08:40:29;;;;;;;4.93;2.40;;;12.40;59.00;;;;;;5042418;28;20576;-64
2024/02/07 08:42:55;;;;;;;3.57;2.43;;;12.30;59.00;;;;;;5050159;28;20188;-65
2024/02/07 08:45:20;;;;;;;5.93;2.60;;;12.30;59.10;;;;;;5049337;28;20269;-69
2024/02/07 08:47:47;;;;;;;5.97;3.40;;;12.40;59.00;;;;;;5038603;28;20232;-66
2024/02/07 08:50:13;;;;;;;2.33;2.13;;;12.50;58.70;;;;;;5044663;28;20181;-69
2024/02/07 08:52:39;;;;;;;4.07;2.70;;;12.60;58.70;;;;;;5043188;28;20423;-65
2024/02/07 08:55:09;;;;;;;7.10;3.40;;;12.70;58.30;;;;;;5049705;28;20884;-66
2024/02/07 08:57:35;;;;;;;7.03;3.00;;;12.70;58.60;;;;;;5041427;28;21002;-66
2024/02/07 09:00:01;;;;;;;3.27;2.40;;;12.50;58.80;;;;;;5045325;28;20810;-69
2024/02/07 09:02:27;;;;;;;3.57;2.80;;;12.50;58.90;;;;;;5048812;28;20443;-67
2024/02/07 09:04:52;;;;;;;4.53;2.70;;;12.50;59.00;;;;;;5049746;28;20188;-70
2024/02/07 09:07:18;;;;;;;3.37;2.60;;;12.60;58.90;;;;;;5043781;28;20196;-65
2024/02/07 09:09:43;;;;;;;4.00;2.60;;;12.70;59.10;;;;;;5045678;28;20177;-71
2024/02/07 09:12:09;;;;;;;6.23;2.50;;;12.80;58.70;;;;;;5047298;28;20204;-67
2024/02/07 09:14:36;;;;;;;4.57;2.50;;;12.80;58.70;;;;;;5037223;28;20665;-68
2024/02/07 09:17:01;;;;;;;3.47;2.73;;;12.70;58.80;;;;;;5038871;28;20219;-67
2024/02/07 09:19:27;;;;;;;2.97;2.67;;;12.70;58.90;;;;;;5045370;28;20799;-62
2024/02/07 09:21:52;;;;;;;3.63;2.30;;;12.30;59.40;;;;;;5043114;28;20278;-63
2024/02/07 09:24:18;;;;;;;5.63;2.63;;;12.40;59.80;;;;;;5042914;28;20184;-62
2024/02/07 09:26:43;;;;;;;5.00;3.30;;;12.40;59.80;;;;;;5040287;28;20648;-60
2024/02/07 09:29:09;;;;;;;4.80;2.63;;;12.60;59.50;;;;;;5041724;28;20205;-61
2024/02/07 09:31:34;;;;;;;4.20;2.40;;;12.80;59.20;;;;;;5044372;28;20195;-63
2024/02/07 09:34:00;;;;;;;5.53;2.33;;;12.80;59.10;;;;;;5043512;28;20299;-63
2024/02/07 09:36:26;;;;;;;5.83;2.50;;;13.00;59.00;;;;;;5029309;28;20211;-61
2024/02/07 09:38:52;;;;;;;3.63;2.60;;;13.00;58.60;;;;;;5043003;28;20185;-62
2024/02/07 09:41:21;;;;;;;4.90;2.73;;;13.00;58.80;;;;;;5041033;28;20444;-61
2024/02/07 09:43:48;;;;;;;4.30;2.57;;;12.90;58.80;;;;;;5039572;28;20457;-62
2024/02/07 09:46:18;;;;;;;3.63;2.53;;;13.00;59.00;;;;;;5038115;28;20474;-61
2024/02/07 09:48:43;;;;;;;4.40;3.37;;;12.80;59.40;;;;;;5041135;28;20852;-61
2024/02/07 09:51:14;;;;;;;4.40;2.53;;;12.70;59.10;;;;;;5035745;28;20499;-63
2024/02/07 09:53:42;;;;;;;4.50;2.53;;;12.60;59.30;;;;;;5040479;28;20443;-63
2024/02/07 09:56:08;;;;;;;6.30;2.27;;;12.50;59.50;;;;;;5033907;28;20519;-63
2024/02/07 09:58:34;;;;;;;5.57;2.60;;;12.70;59.40;;;;;;5036607;28;20530;-62
2024/02/07 10:01:00;;;;;;;6.13;2.80;;;12.60;59.40;;;;;;5033162;28;20558;-62
2024/02/07 10:03:27;;;;;;;3.37;2.10;;;12.60;59.70;;;;;;5033660;28;20471;-62
2024/02/07 10:05:56;;;;;;;6.93;2.67;;;12.70;59.40;;;;;;5035530;28;20466;-62
2024/02/07 10:08:23;;;;;;;4.80;2.27;;;12.80;59.50;;;;;;5029964;28;20479;-63
2024/02/07 10:10:50;;;;;;;4.83;3.20;;;12.70;59.10;;;;;;5035008;28;20824;-63
2024/02/07 10:13:17;;;;;;;3.87;2.23;;;12.80;59.30;;;;;;5041004;28;20445;-62
2024/02/07 10:15:43;;;;;;;5.47;2.30;;;12.80;59.30;;;;;;5032318;28;20459;-63
2024/02/07 10:18:10;;;;;;;4.00;2.40;;;12.70;59.10;;;;;;5031855;28;20438;-62
2024/02/07 10:20:35;;;;;;;2.80;2.37;;;12.70;59.10;;;;;;5040392;28;21046;-63
2024/02/07 10:23:07;;;;;;;3.30;2.80;;;12.80;59.30;;;;;;5033808;28;20471;-63
2024/02/07 10:25:34;;;;;;;2.60;2.37;;;13.00;59.00;;;;;;5044010;28;20192;-62
2024/02/07 10:28:05;;;;;;;6.63;2.57;;;12.80;58.90;;;;;;5042753;28;20505;-62
2024/02/07 10:30:31;;;;;;;4.73;2.03;;;12.80;58.70;;;;;;5044592;28;20486;-63
2024/02/07 10:32:57;;;;;;;4.50;2.00;;;13.00;59.10;;;;;;5038020;28;20448;-63
2024/02/07 10:35:23;;;;;;;3.90;2.50;;;13.10;58.40;;;;;;5044373;28;20224;-62
2024/02/07 10:37:52;;;;;;;6.10;2.43;;;13.10;58.50;;;;;;5036893;28;20448;-60
2024/02/07 10:40:19;;;;;;;5.53;1.90;;;13.10;58.40;;;;;;5044663;28;20196;-61
2024/02/07 10:42:58;;;;;;;3.27;2.97;;;13.10;58.40;;;;;;5041140;28;20454;-63
2024/02/07 10:45:24;;;;;;;2.17;1.97;;;13.10;58.50;;;;;;5043810;28;20449;-63
2024/02/07 10:47:52;;;;;;;3.23;2.43;;;13.20;58.60;;;;;;5042504;28;20471;-62
2024/02/07 10:50:20;;;;;;;5.90;2.20;;;13.30;58.50;;;;;;5045285;28;20274;-62
2024/02/07 10:52:47;;;;;;;2.40;2.10;;;13.50;58.20;;;;;;5041155;28;20424;-63
2024/02/07 10:55:13;;;;;;;2.23;1.73;;;13.20;58.30;;;;;;5041760;28;20444;-61
2024/02/07 10:57:47;;;;;;;2.30;1.83;;;13.50;58.20;;;;;;5042562;28;20454;-63
2024/02/07 11:00:13;;;;;;;2.57;2.37;;;13.70;58.10;;;;;;5045404;28;20534;-62
2024/02/07 11:02:41;;;;;;;2.27;2.07;;;13.50;57.60;;;;;;5041739;28;20490;-62
2024/02/07 11:05:07;;;;;;;3.30;1.87;;;13.30;58.30;;;;;;5043287;28;20439;-62
2024/02/07 11:07:33;;;;;;;3.80;2.40;;;13.10;58.50;;;;;;5037642;28;20467;-62
2024/02/07 11:10:00;;;;;;;2.83;1.87;;;13.00;58.60;;;;;;5043473;28;20429;-61
2024/02/07 11:12:26;;;;;;;3.93;2.00;;;13.10;59.00;;;;;;5039844;28;20177;-62
2024/02/07 11:14:53;;;;;;;3.33;2.30;;;13.00;58.90;;;;;;5038550;28;20454;-63
2024/02/07 11:17:18;;;;;;;3.17;2.23;;;13.10;59.10;;;;;;5042369;28;20466;-61
2024/02/07 11:19:45;;;;;;;2.97;2.10;;;13.40;58.90;;;;;;5038786;28;20793;-63
2024/02/07 11:22:16;;;;;;;4.03;2.27;;;13.30;58.50;;;;;;5041156;28;20185;-60
2024/02/07 11:24:45;;;;;;;2.40;1.63;;;13.40;58.70;;;;;;5044934;28;21032;-63
2024/02/07 11:27:12;;;;;;;2.77;1.80;;;13.00;58.70;;;;;;5041430;28;20440;-62
2024/02/07 11:29:37;;;;;;;4.27;2.70;;;13.00;59.30;;;;;;5037087;28;20493;-62
2024/02/07 11:32:05;;;;;;;2.40;2.10;;;13.10;59.30;;;;;;5043161;28;20439;-62
2024/02/07 11:34:31;;;;;;;2.80;2.07;;;13.30;59.30;;;;;;5044065;28;20242;-63
2024/02/07 11:37:03;;;;;;;2.10;1.90;;;13.30;58.80;;;;;;5036774;28;20509;-62
2024/02/07 11:39:39;;;;;;;3.70;2.23;;;13.20;58.80;;;;;;5040742;28;20423;-63
2024/02/07 11:42:15;;;;;;;4.83;2.83;;;13.40;58.80;;;;;;5034410;28;20438;-62
2024/02/07 11:44:59;;;;;;;3.40;2.17;;;13.50;58.60;;;;;;5034925;28;20469;-60
2024/02/07 11:47:26;;;;;;;6.23;2.47;;;13.50;58.70;;;;;;5035368;28;20525;-61
2024/02/07 11:50:05;;;;;;;3.27;2.17;;;13.30;58.70;;;;;;5034715;28;20444;-62
2024/02/07 11:52:38;;;;;;;2.27;2.07;;;13.30;59.50;;;;;;5042913;28;20458;-61
2024/02/07 11:55:14;;;;;;;3.23;2.10;;;13.30;59.10;;;;;;5035135;28;20449;-62
2024/02/07 11:57:41;;;;;;;2.23;2.00;;;13.30;59.20;;;;;;5036137;28;20466;-62
2024/02/07 12:00:11;;;;;;;2.43;1.90;;;13.30;59.00;;;;;;5040460;28;20428;-62
2024/02/07 12:02:36;;;;;;;4.30;1.73;;;13.50;58.80;;;;;;5037985;28;20807;-63
2024/02/07 12:05:05;;;;;;;2.07;1.83;;;13.30;58.60;;;;;;5041512;28;20443;-62
2024/02/07 12:07:31;;;;;;;2.23;1.87;;;13.30;58.60;;;;;;5036119;28;20220;-62
2024/02/07 12:09:57;;;;;;;2.47;2.27;;;13.30;58.70;;;;;;5040619;28;20450;-61
2024/02/07 12:12:24;;;;;;;2.00;1.80;;;13.30;59.00;;;;;;5036159;28;20447;-62
2024/02/07 12:14:50;;;;;;;2.07;1.73;;;13.40;58.70;;;;;;5033119;28;20493;-61
2024/02/07 12:17:16;;;;;;;2.93;1.70;;;13.70;58.60;;;;;;5040067;28;20462;-62
2024/02/07 12:19:44;;;;;;;1.50;1.40;;;13.50;57.90;;;;;;5038586;28;20451;-61
2024/02/07 12:22:17;;;;;;;3.50;1.87;;;13.50;58.20;;;;;;5035757;28;20192;-62
2024/02/07 12:24:43;;;;;;;5.10;1.80;;;13.50;58.20;;;;;;5039297;28;20435;-62
2024/02/07 12:27:13;;;;;;;2.53;1.80;;;13.70;58.10;;;;;;5032110;28;20468;-61
2024/02/07 12:29:59;;;;;;;2.23;1.50;;;13.70;57.70;;;;;;5039918;28;20455;-61
2024/02/07 12:32:25;;;;;;;1.63;1.53;;;13.70;57.70;;;;;;5038957;28;20439;-62
2024/02/07 12:34:55;;;;;;;1.37;1.27;;;13.70;57.80;;;;;;5038733;28;20436;-62
2024/02/07 12:37:21;;;;;;;2.07;1.73;;;13.60;57.70;;;;;;5039691;28;20432;-62
2024/02/07 12:39:48;;;;;;;1.80;1.60;;;13.60;57.90;;;;;;5042783;28;20524;-62
2024/02/07 12:42:18;;;;;;;1.37;1.27;;;13.80;57.50;;;;;;5035901;28;20443;-61
2024/02/07 12:44:44;;;;;;;1.67;1.43;;;14.00;57.30;;;;;;5039083;28;20466;-60
2024/02/07 12:47:14;;;;;;;2.73;1.53;;;13.60;57.30;;;;;;5031046;28;20875;-62
2024/02/07 12:49:40;;;;;;;1.47;1.37;;;13.60;57.50;;;;;;5043091;28;20227;-61
2024/02/07 12:52:06;;;;;;;1.53;1.40;;;13.80;57.60;;;;;;5042911;28;20462;-62
2024/02/07 12:54:32;;;;;;;2.60;1.40;;;13.90;57.20;;;;;;5035138;28;20465;-60
2024/02/07 12:56:57;;;;;;;2.30;1.30;;;13.80;57.30;;;;;;5036205;28;20980;-62
2024/02/07 12:59:33;;;;;;;1.87;1.30;;;13.70;57.30;;;;;;5036589;28;20192;-62
2024/02/07 13:02:06;;;;;;;4.10;1.90;;;13.70;57.60;;;;;;5031924;28;20195;-61
2024/02/07 13:04:32;;;;;;;2.50;1.67;;;13.80;57.50;;;;;;5042298;28;20451;-62
2024/02/07 13:07:05;;;;;;;5.63;1.63;;;13.80;57.60;;;;;;5035746;28;20487;-62
2024/02/07 13:09:31;;;;;;;1.80;1.40;;;13.70;57.60;;;;;;5037462;28;20479;-62
2024/02/07 13:11:57;;;;;;;9.83;1.50;;;13.50;57.60;;;;;;5033027;28;20442;-62
2024/02/07 13:14:22;;;;;;;6.57;1.53;;;13.70;57.90;;;;;;5043325;28;20960;-61
2024/02/07 13:16:51;;;;;;;2.10;1.20;;;13.80;57.80;;;;;;5035598;28;20255;-60
2024/02/07 13:19:17;;;;;;;1.50;1.20;;;13.80;57.70;;;;;;5033380;28;20220;-61
2024/02/07 13:21:43;;;;;;;1.70;1.57;;;13.60;57.80;;;;;;5035906;28;20471;-62
2024/02/07 13:24:19;;;;;;;3.97;1.50;;;13.70;57.90;;;;;;5033712;28;20475;-63
2024/02/07 13:26:47;;;;;;;3.00;1.60;;;13.80;58.00;;;;;;5035214;28;20200;-59
2024/02/07 13:29:13;;;;;;;3.00;1.40;;;13.70;58.10;;;;;;5036180;28;20511;-61
2024/02/07 13:31:39;;;;;;;3.30;1.33;;;13.70;58.00;;;;;;5034853;28;20454;-60
2024/02/07 13:34:06;;;;;;;1.30;1.10;;;14.00;58.10;;;;;;5036856;28;20523;-62
2024/02/07 13:36:31;;;;;;;1.83;1.57;;;14.10;57.30;;;;;;5036356;28;20942;-61
2024/02/07 13:38:57;;;;;;;3.50;1.57;;;14.10;57.40;;;;;;5042840;28;20443;-62
2024/02/07 13:41:23;;;;;;;2.40;1.67;;;14.00;57.40;;;;;;5041450;28;20191;-60
2024/02/07 13:43:48;;;;;;;2.00;1.60;;;13.90;57.80;;;;;;5036842;28;20439;-62
2024/02/07 13:46:14;;;;;;;4.17;1.60;;;13.90;58.10;;;;;;5037703;28;20267;-61
2024/02/07 13:48:40;;;;;;;2.60;1.53;;;13.60;58.30;;;;;;5033456;28;20231;-62
2024/02/07 13:51:06;;;;;;;3.97;1.27;;;13.70;59.10;;;;;;5035926;28;20188;-62